createdAt,value
2022-10-23T00:04:20.507Z,101029.97
2022-10-23T00:14:41.902Z,101032.66
2022-10-23T00:25:04.483Z,101026.78
2022-10-23T00:35:25.846Z,101019.31
2022-10-23T00:45:47.709Z,101024.53
2022-10-23T00:56:09.059Z,101022.50
2022-10-23T01:06:39.509Z,101017.00
2022-10-23T01:17:06.278Z,101019.25
2022-10-23T01:27:31.894Z,101013.38
2022-10-23T01:38:01.140Z,101016.69
2022-10-23T01:48:26.032Z,101011.88
2022-10-23T01:58:49.276Z,101014.03
2022-10-23T02:09:10.999Z,101007.72
2022-10-23T02:19:35.508Z,101009.22
2022-10-23T02:30:01.785Z,100990.56
2022-10-23T02:40:24.038Z,100992.16
2022-10-23T02:51:10.852Z,100978.22
2022-10-23T03:01:50.714Z,100960.44
2022-10-23T03:12:12.234Z,100964.31
2022-10-23T03:22:33.668Z,100942.38
2022-10-23T03:32:55.031Z,100932.72
2022-10-23T03:43:16.365Z,100927.88
2022-10-23T03:53:37.726Z,100932.44
2022-10-23T04:03:59.074Z,100920.66
2022-10-23T04:14:20.431Z,100920.72
2022-10-23T04:24:46.733Z,100906.72
2022-10-23T04:35:08.219Z,100905.84
2022-10-23T04:45:29.607Z,100909.31
2022-10-23T04:55:51.952Z,100915.75
2022-10-23T05:06:13.319Z,100910.19
2022-10-23T05:16:41.727Z,100909.78
2022-10-23T05:27:03.183Z,100898.28
2022-10-23T05:37:25.287Z,100881.34
2022-10-23T05:47:46.705Z,100866.44
2022-10-23T05:58:08.055Z,100853.66
2022-10-23T06:08:29.735Z,100861.91
2022-10-23T06:18:51.119Z,100853.06
2022-10-23T06:29:12.468Z,100857.91
2022-10-23T06:39:33.913Z,100847.88
2022-10-23T06:49:55.276Z,100848.63
2022-10-23T07:00:16.755Z,100853.56
2022-10-23T07:10:38.101Z,100856.38
2022-10-23T07:20:59.517Z,100851.91
2022-10-23T07:31:27.985Z,100855.09
2022-10-23T07:41:49.909Z,100864.75
2022-10-23T07:52:11.316Z,100853.88
2022-10-23T08:02:32.848Z,100838.84
2022-10-23T08:12:54.228Z,100829.38
2022-10-23T08:23:17.885Z,100817.09
2022-10-23T08:33:39.384Z,100810.69
2022-10-23T08:44:18.628Z,100815.50
2022-10-23T08:55:00.402Z,100810.63
2022-10-23T09:05:21.726Z,100806.91
2022-10-23T09:15:47.894Z,100826.78
2022-10-23T09:26:17.231Z,100810.94
2022-10-23T09:36:48.749Z,100787.63
2022-10-23T09:47:13.890Z,100782.09
2022-10-23T09:57:40.197Z,100775.94
2022-10-23T10:08:20.438Z,100751.94
2022-10-23T10:18:56.281Z,100732.50
2022-10-23T10:29:38.324Z,100720.06
2022-10-23T10:40:07.740Z,100711.47
2022-10-23T10:50:32.236Z,100688.16
2022-10-23T11:00:56.809Z,100677.75
2022-10-23T11:11:18.318Z,100682.53
2022-10-23T11:21:42.614Z,100667.28
2022-10-23T11:32:14.416Z,100641.94
2022-10-23T11:42:39.000Z,100611.63
2022-10-23T11:53:13.630Z,100606.25
2022-10-23T12:03:49.194Z,100564.25
2022-10-23T12:14:31.385Z,100549.25
2022-10-23T12:25:00.586Z,100517.34
2022-10-23T12:35:26.729Z,100501.00
2022-10-23T12:45:48.177Z,100451.38
2022-10-23T12:56:12.220Z,100452.28
2022-10-23T13:06:33.871Z,100417.41
2022-10-23T13:16:59.027Z,100416.50
2022-10-23T13:27:32.738Z,100427.31
2022-10-23T13:37:54.168Z,100415.59
2022-10-23T13:48:16.147Z,100397.44
2022-10-23T13:58:37.508Z,100364.53
2022-10-23T14:08:58.871Z,100359.84
2022-10-23T14:19:20.287Z,100329.88
2022-10-23T14:29:41.931Z,100304.38
2022-10-23T14:40:03.844Z,100250.16
2022-10-23T14:50:25.254Z,100268.50
2022-10-23T15:00:46.671Z,100297.16
2022-10-23T15:11:10.333Z,100279.38
2022-10-23T15:21:34.034Z,100262.91
2022-10-23T15:31:57.097Z,100256.28
2022-10-23T15:42:19.340Z,100250.44
2022-10-23T15:52:40.730Z,100209.09
2022-10-23T16:03:02.181Z,100192.59
2022-10-23T16:13:23.521Z,100173.75
2022-10-23T16:23:45.189Z,100153.59
2022-10-23T16:34:06.865Z,100134.84
2022-10-23T16:44:28.284Z,100149.50
2022-10-23T16:54:49.641Z,100119.63
2022-10-23T17:05:10.996Z,100128.31
2022-10-23T17:15:32.429Z,100132.00
2022-10-23T17:25:54.118Z,100120.28
2022-10-23T17:36:16.092Z,100101.59
2022-10-23T17:46:37.799Z,100124.41
2022-10-23T17:56:59.242Z,100115.16
2022-10-23T18:07:21.027Z,100112.31
2022-10-23T18:17:42.822Z,100093.19
2022-10-23T18:28:04.659Z,100094.69
2022-10-23T18:38:26.255Z,100090.28
2022-10-23T18:48:48.135Z,100070.16
2022-10-23T18:59:14.911Z,100046.31
2022-10-23T19:09:36.504Z,100055.81
2022-10-23T19:20:17.993Z,100043.25
2022-10-23T19:30:39.620Z,100040.91
2022-10-23T19:41:01.943Z,100050.72
2022-10-23T19:51:23.317Z,100034.16
2022-10-23T20:01:47.824Z,100034.59
2022-10-23T20:12:10.740Z,100013.34
2022-10-23T20:22:32.254Z,100015.00
2022-10-23T20:32:53.800Z,100011.28
2022-10-23T20:43:15.227Z,100008.97
2022-10-23T20:53:37.124Z,100001.66
2022-10-23T21:03:59.545Z,100020.53
2022-10-23T21:14:20.977Z,100021.50
2022-10-23T21:24:42.406Z,100032.66
2022-10-23T21:35:03.913Z,100063.00
2022-10-23T21:45:25.273Z,100023.84
2022-10-23T21:55:46.645Z,100032.94
2022-10-23T22:06:09.888Z,100024.81
2022-10-23T22:16:31.351Z,100011.16
2022-10-23T22:26:54.647Z,99993.38
2022-10-23T22:37:16.446Z,99990.16
2022-10-23T22:47:37.784Z,99994.41
2022-10-23T22:57:59.149Z,100007.53
2022-10-23T23:08:20.497Z,100011.97
2022-10-23T23:18:41.881Z,100011.81
2022-10-23T23:29:03.246Z,100010.28
2022-10-23T23:39:26.065Z,100014.75
2022-10-23T23:49:47.438Z,100015.25
